Sibi Weather



Sibi's Current Weather

Temprature 32.22o clear sky

clear sky

Rain: 0 %

Min Temprature32.22o
Max Temprature32.22o
Humidity14
Wind Speed2.58 m/h
Sun Rise05:31:45
Sun Set19:19:11
Current Time: 24-May-2022 08:03:59
Lat/Lon: 29.5448, 67.8764




Sibi's Geo Location



Sibi's Weather Forecast

Time Overall Temp Min Temp Max Temp Humidity Wind Speed Rain
24-May-2022 (Tue)
11:00:00 clear sky 33.640 33.640 36.480 16 4.01 m/h 0 %
14:00:00 clear sky 37.620 37.620 40.320 11 4.53 m/h 0 %
17:00:00 clear sky 40.800 40.800 40.800 8 4.83 m/h 0 %
20:00:00 clear sky 35.800 35.800 35.800 11 1.61 m/h 0 %
23:00:00 clear sky 33.930 33.930 33.930 11 1.33 m/h 0 %
25-May-2022 (Wed)
02:00:00 clear sky 31.560 31.560 31.560 13 1.21 m/h 0 %
05:00:00 clear sky 29.840 29.840 29.840 16 0.77 m/h 0 %
08:00:00 clear sky 35.610 35.610 35.610 12 2.07 m/h 0 %
11:00:00 clear sky 39.810 39.810 39.810 13 4.48 m/h 0 %
14:00:00 clear sky 42.760 42.760 42.760 10 4.01 m/h 0 %
17:00:00 clear sky 43.900 43.900 43.900 8 5.15 m/h 0 %
20:00:00 clear sky 38.610 38.610 38.610 11 2.99 m/h 0 %
23:00:00 clear sky 35.060 35.060 35.060 13 1.28 m/h 0 %
26-May-2022 (Thu)
02:00:00 clear sky 33.360 33.360 33.360 14 1.36 m/h 0 %
05:00:00 clear sky 30.890 30.890 30.890 16 0.38 m/h 0 %
08:00:00 clear sky 37.040 37.040 37.040 11 0.41 m/h 0 %
11:00:00 clear sky 42.350 42.350 42.350 9 2.02 m/h 0 %
14:00:00 clear sky 46.900 46.900 46.900 5 4.25 m/h 0 %
17:00:00 clear sky 47.730 47.730 47.730 4 4.42 m/h 0 %
20:00:00 clear sky 41.410 41.410 41.410 6 3.63 m/h 0 %
23:00:00 clear sky 37.710 37.710 37.710 7 0.96 m/h 0 %
27-May-2022 (Fri)
02:00:00 clear sky 34.450 34.450 34.450 10 1.04 m/h 0 %
05:00:00 clear sky 31.840 31.840 31.840 21 0.49 m/h 0 %
08:00:00 clear sky 36.780 36.780 36.780 21 0.63 m/h 0 %
11:00:00 clear sky 45.720 45.720 45.720 5 2.64 m/h 0 %
14:00:00 clear sky 48.840 48.840 48.840 3 9.15 m/h 0 %
17:00:00 clear sky 47.820 47.820 47.820 3 9.16 m/h 0 %
20:00:00 clear sky 41.060 41.060 41.060 4 4.93 m/h 0 %
23:00:00 clear sky 37.670 37.670 37.670 4 5.68 m/h 0 %
28-May-2022 (Sat)
02:00:00 clear sky 35.140 35.140 35.140 5 4.96 m/h 0 %
05:00:00 clear sky 32.050 32.050 32.050 6 2.23 m/h 0 %
08:00:00 clear sky 37.130 37.130 37.130 6 5.07 m/h 0 %
11:00:00 clear sky 43.920 43.920 43.920 3 9 m/h 0 %
14:00:00 clear sky 46.540 46.540 46.540 2 10.85 m/h 0 %
17:00:00 clear sky 45.420 45.420 45.420 2 11.26 m/h 0 %
20:00:00 clear sky 40.100 40.100 40.100 3 9.95 m/h 0 %
23:00:00 clear sky 37.010 37.010 37.010 3 10.29 m/h 0 %
29-May-2022 (Sun)
02:00:00 clear sky 33.160 33.160 33.160 5 5.42 m/h 0 %
05:00:00 clear sky 29.790 29.790 29.790 6 2.9 m/h 0 %
08:00:00 clear sky 36.070 36.070 36.070 5 3.39 m/h 0 %

Famous Cities (61)